Time;durP1;ratioP1;P1;durP2;ratioP2;P2;SDS_P1;SDS_P2;PMS_P1;PMS_P2;Temp;Humidity;BMP_temperature;BMP_pressure;BME280_temperature;BME280_humidity;BME280_pressure;Samples;Min_cycle;Max_cycle;Signal;HPM_P1;HPM_P2
2023/06/11 00:03:04;;;;;;;10.00;5.60;;;;;;;16.83;56.21;101092.20;104793;1269;104447;-79
2023/06/11 00:05:49;;;;;;;11.40;5.60;;;;;;;16.80;56.56;101091.70;104630;1272;99156;-78
2023/06/11 00:08:35;;;;;;;12.30;6.00;;;;;;;16.75;56.25;101091.30;104641;1276;98965;-80
2023/06/11 00:11:22;;;;;;;13.40;5.10;;;;;;;16.68;56.43;101088.79;104625;1268;98005;-79
2023/06/11 00:14:09;;;;;;;8.70;5.60;;;;;;;16.64;56.34;101086.61;104674;1268;98520;-79
2023/06/11 00:16:56;;;;;;;7.70;6.20;;;;;;;16.60;56.40;101087.51;104629;1274;101396;-79
2023/06/11 00:19:43;;;;;;;7.70;4.70;;;;;;;16.57;56.43;101089.92;104728;1275;99122;-78
2023/06/11 00:22:31;;;;;;;7.40;4.80;;;;;;;16.55;56.65;101088.20;104675;1273;99079;-80
2023/06/11 00:25:17;;;;;;;7.60;5.80;;;;;;;16.50;56.42;101089.23;104624;1268;99103;-79
2023/06/11 00:28:03;;;;;;;7.10;4.70;;;;;;;16.42;56.54;101090.45;104673;1268;97883;-80
2023/06/11 00:30:49;;;;;;;13.20;4.80;;;;;;;16.37;56.67;101090.96;104653;1267;102075;-79
2023/06/11 00:33:35;;;;;;;12.20;4.70;;;;;;;16.35;56.63;101092.46;104612;1268;99101;-79
2023/06/11 00:36:21;;;;;;;11.90;4.90;;;;;;;16.29;56.79;101094.40;104639;1268;98500;-80
2023/06/11 00:39:07;;;;;;;10.80;4.90;;;;;;;16.23;56.70;101094.78;104648;1274;99032;-79
2023/06/11 00:41:53;;;;;;;8.40;5.30;;;;;;;16.17;56.77;101096.42;104604;1273;98490;-78
2023/06/11 00:44:39;;;;;;;8.00;4.90;;;;;;;16.12;57.00;101101.79;104499;1272;101931;-79
2023/06/11 00:47:24;;;;;;;6.70;4.80;;;;;;;16.07;56.78;101104.41;104647;1274;99214;-80
2023/06/11 00:50:10;;;;;;;5.70;4.60;;;;;;;16.03;56.86;101106.58;104633;1274;98991;-80
2023/06/11 00:52:56;;;;;;;8.50;4.60;;;;;;;15.98;56.89;101106.09;104644;1273;98867;-79
2023/06/11 00:55:41;;;;;;;8.80;5.00;;;;;;;15.93;56.75;101107.73;104609;1273;99116;-79
2023/06/11 00:58:27;;;;;;;7.80;4.50;;;;;;;15.87;56.88;101108.63;104658;1273;111214;-79
2023/06/11 01:01:25;;;;;;;7.50;4.40;;;;;;;15.83;57.04;101109.63;104597;1273;99260;-78
2023/06/11 01:04:20;;;;;;;8.50;4.70;;;;;;;15.77;57.07;101108.80;104560;1273;98493;-78
2023/06/11 01:07:08;;;;;;;8.40;4.40;;;;;;;15.71;56.96;101111.42;104663;1271;98167;-79
2023/06/11 01:09:55;;;;;;;8.70;4.60;;;;;;;15.64;56.91;101112.42;104690;1272;98506;-78
2023/06/11 01:12:41;;;;;;;10.00;4.10;;;;;;;15.59;57.11;101114.13;104621;1273;101370;-79
2023/06/11 01:15:27;;;;;;;10.50;4.20;;;;;;;15.53;57.09;101115.11;104672;1268;100157;-79
2023/06/11 01:18:18;;;;;;;9.40;4.20;;;;;;;15.46;57.24;101119.02;104624;1271;98197;-80
2023/06/11 01:21:12;;;;;;;9.60;4.60;;;;;;;15.41;57.29;101123.01;104484;1286;98114;-80
2023/06/11 01:24:26;;;;;;;9.40;5.20;;;;;;;15.37;57.23;101123.62;104636;1271;98522;-79
2023/06/11 01:27:34;;;;;;;6.80;4.40;;;;;;;15.31;57.13;101125.68;104643;1274;101369;-79
2023/06/11 01:30:20;;;;;;;9.20;4.60;;;;;;;15.26;57.21;101125.21;104677;1271;98947;-79
2023/06/11 01:33:08;;;;;;;8.00;4.50;;;;;;;15.22;57.16;101129.61;104899;1281;98012;-80
2023/06/11 01:35:58;;;;;;;12.00;4.30;;;;;;;15.18;57.18;101133.16;105276;1268;97942;-80
2023/06/11 01:38:51;;;;;;;8.80;3.80;;;;;;;15.15;57.32;101133.91;105500;1268;97954;-81
2023/06/11 01:41:50;;;;;;;9.30;4.20;;;;;;;15.09;57.24;101134.10;105008;1274;101383;-79
2023/06/11 01:44:36;;;;;;;8.50;3.80;;;;;;;15.03;57.21;101138.56;104659;1271;99998;-78
2023/06/11 01:47:22;;;;;;;7.60;4.40;;;;;;;15.00;57.28;101138.34;104669;1269;98997;-78
2023/06/11 01:50:08;;;;;;;8.60;4.20;;;;;;;14.97;57.17;101140.98;104703;1268;97886;-78
2023/06/11 01:52:54;;;;;;;12.10;4.20;;;;;;;14.92;57.03;101142.92;104721;1271;98523;-79
2023/06/11 01:55:42;;;;;;;5.00;3.80;;;;;;;14.90;57.07;101140.66;104759;1272;103115;-79
2023/06/11 01:58:28;;;;;;;8.50;4.20;;;;;;;14.88;57.17;101140.86;104731;1280;100880;-78
2023/06/11 02:01:14;;;;;;;6.30;4.30;;;;;;;14.84;56.93;101142.97;104688;1271;97978;-80
2023/06/11 02:04:00;;;;;;;8.10;3.70;;;;;;;14.80;56.90;101144.81;104679;1274;98029;-79
2023/06/11 02:06:46;;;;;;;6.90;4.00;;;;;;;14.75;57.03;101145.79;104818;1271;98554;-79
2023/06/11 02:09:32;;;;;;;5.00;3.30;;;;;;;14.71;57.01;101148.34;104695;1268;102292;-78
2023/06/11 02:12:17;;;;;;;9.30;3.80;;;;;;;14.66;57.13;101151.73;104768;1273;99244;-78
2023/06/11 02:15:05;;;;;;;6.70;4.00;;;;;;;14.62;57.19;101155.23;104725;1273;99630;-78
2023/06/11 02:17:50;;;;;;;5.80;3.60;;;;;;;14.57;57.14;101156.40;104731;1274;98778;-79
2023/06/11 02:20:36;;;;;;;7.50;3.70;;;;;;;14.53;57.41;101159.61;104717;1273;98051;-78
2023/06/11 02:23:22;;;;;;;6.40;4.60;;;;;;;14.48;57.34;101163.07;104745;1271;102550;-79
2023/06/11 02:26:07;;;;;;;6.50;3.50;;;;;;;14.44;57.51;101166.08;104770;1271;100176;-78
2023/06/11 02:28:53;;;;;;;5.90;3.40;;;;;;;14.39;57.41;101166.61;104705;1282;99104;-79
2023/06/11 02:31:38;;;;;;;6.10;3.80;;;;;;;14.36;57.43;101168.30;104811;1268;97911;-80
2023/06/11 02:34:24;;;;;;;8.00;3.30;;;;;;;14.33;57.54;101176.08;104757;1273;99778;-79
2023/06/11 02:37:10;;;;;;;5.90;3.40;;;;;;;14.31;57.67;101177.96;104699;1268;101309;-78
2023/06/11 02:39:55;;;;;;;6.50;3.00;;;;;;;14.29;57.40;101178.44;104707;1272;100726;-80
2023/06/11 02:42:40;;;;;;;5.50;3.20;;;;;;;14.26;57.64;101182.66;104790;1271;97999;-78
2023/06/11 02:45:26;;;;;;;7.50;3.30;;;;;;;14.27;57.78;101185.52;104716;1281;98000;-79
2023/06/11 02:48:11;;;;;;;5.80;3.60;;;;;;;14.25;57.61;101188.73;104786;1271;98083;-80
2023/06/11 02:50:57;;;;;;;5.30;2.80;;;;;;;14.25;57.77;101191.11;104877;1268;102730;-80
2023/06/11 02:53:44;;;;;;;9.40;3.20;;;;;;;14.24;57.69;101192.64;104816;1270;100055;-78
2023/06/11 02:56:29;;;;;;;6.30;3.30;;;;;;;14.26;57.64;101194.40;104862;1271;99043;-79
2023/06/11 02:59:15;;;;;;;4.80;3.00;;;;;;;14.28;57.75;101194.64;104783;1273;97995;-80
2023/06/11 03:02:01;;;;;;;8.40;2.90;;;;;;;14.32;57.83;101193.31;104916;1271;98458;-79
2023/06/11 03:04:46;;;;;;;7.80;3.30;;;;;;;14.31;57.78;101197.50;104769;1274;102623;-79
2023/06/11 03:07:33;;;;;;;6.00;3.30;;;;;;;14.32;57.84;101194.35;104777;1271;100312;-78
2023/06/11 03:10:18;;;;;;;6.20;3.10;;;;;;;14.32;57.76;101197.29;104766;1271;99434;-79
2023/06/11 03:13:04;;;;;;;6.60;3.10;;;;;;;14.32;57.68;101199.78;104778;1273;98084;-78
2023/06/11 03:15:50;;;;;;;8.10;4.10;;;;;;;14.33;57.74;101204.34;104786;1271;98589;-79
2023/06/11 03:18:36;;;;;;;5.50;3.30;;;;;;;14.34;57.75;101205.77;104804;1280;101435;-78
2023/06/11 03:21:21;;;;;;;6.00;3.20;;;;;;;14.36;57.74;101203.42;104778;1273;99372;-79
2023/06/11 03:24:07;;;;;;;7.90;3.00;;;;;;;14.36;57.66;101203.59;104692;1273;98084;-78
2023/06/11 03:26:53;;;;;;;6.00;3.20;;;;;;;14.36;57.73;101206.23;104762;1272;97984;-79
2023/06/11 03:29:38;;;;;;;6.50;3.00;;;;;;;14.36;57.68;101209.17;104756;1273;97931;-79
2023/06/11 03:32:24;;;;;;;6.30;3.20;;;;;;;14.37;57.65;101209.10;104816;1269;101350;-79
2023/06/11 03:35:11;;;;;;;7.50;3.40;;;;;;;14.40;57.79;101208.38;104794;1272;99184;-79
2023/06/11 03:37:56;;;;;;;8.00;3.00;;;;;;;14.42;57.59;101212.27;104681;1273;98035;-79
2023/06/11 03:40:43;;;;;;;7.40;3.10;;;;;;;14.41;57.44;101218.63;104798;1273;97973;-77
2023/06/11 03:43:29;;;;;;;4.20;2.90;;;;;;;14.42;57.52;101220.38;104748;1276;98448;-79
2023/06/11 03:46:16;;;;;;;7.20;2.90;;;;;;;14.43;57.70;101222.80;105024;1272;101579;-80
2023/06/11 03:49:02;;;;;;;5.40;2.90;;;;;;;14.44;57.62;101226.77;105550;1273;99108;-80
2023/06/11 03:51:48;;;;;;;4.90;2.50;;;;;;;14.47;57.88;101230.08;104932;1273;98657;-79
2023/06/11 03:54:33;;;;;;;3.80;2.50;;;;;;;14.52;57.66;101235.96;105299;1268;97783;-79
2023/06/11 03:57:20;;;;;;;12.40;2.90;;;;;;;14.56;57.71;101238.67;105003;1268;99574;-79
2023/06/11 04:00:07;;;;;;;4.60;2.70;;;;;;;14.60;57.75;101239.54;104914;1273;101355;-79
2023/06/11 04:02:59;;;;;;;6.20;3.00;;;;;;;14.63;57.57;101241.92;104954;1281;99275;-79
2023/06/11 04:05:47;;;;;;;4.00;3.00;;;;;;;14.64;57.43;101243.17;105064;1267;98920;-80
2023/06/11 04:08:33;;;;;;;6.50;2.70;;;;;;;14.67;57.62;101250.58;104983;1272;97898;-80
2023/06/11 04:11:19;;;;;;;10.10;3.80;;;;;;;14.71;57.57;101249.86;105060;1273;98504;-80
2023/06/11 04:14:06;;;;;;;6.30;3.40;;;;;;;14.75;57.71;101251.88;104942;1273;102591;-80
2023/06/11 04:16:52;;;;;;;6.00;2.40;;;;;;;14.81;57.63;101252.98;104931;1273;99112;-80
2023/06/11 04:19:37;;;;;;;7.00;3.30;;;;;;;14.89;57.40;101257.27;104958;1272;98988;-80
2023/06/11 04:22:23;;;;;;;7.30;3.00;;;;;;;14.96;57.40;101259.39;104961;1267;98067;-79
2023/06/11 04:25:09;;;;;;;5.20;2.50;;;;;;;15.05;57.28;101260.56;104874;1276;98415;-80
2023/06/11 04:27:54;;;;;;;10.00;3.00;;;;;;;15.11;57.25;101263.04;105518;1267;102069;-80
2023/06/11 04:30:41;;;;;;;5.20;2.90;;;;;;;15.17;57.07;101261.45;105364;1270;100371;-80
2023/06/11 04:33:36;;;;;;;5.70;2.20;;;;;;;15.21;56.94;101263.02;105447;1273;98983;-79
2023/06/11 04:36:24;;;;;;;3.10;2.40;;;;;;;15.29;57.29;101262.54;105424;1267;97981;-80
2023/06/11 04:39:11;;;;;;;3.90;2.80;;;;;;;15.37;57.24;101261.70;105401;1268;97987;-80
2023/06/11 04:41:58;;;;;;;2.90;2.50;;;;;;;15.46;57.14;101261.55;105391;1271;102595;-79
2023/06/11 04:44:47;;;;;;;11.00;3.70;;;;;;;15.53;56.90;101263.66;104696;1270;99694;-79
2023/06/11 04:47:34;;;;;;;5.00;3.10;;;;;;;15.60;56.79;101267.25;104748;1267;98126;-79
2023/06/11 04:50:23;;;;;;;5.20;2.50;;;;;;;15.67;56.77;101266.27;104938;1272;97933;-80
2023/06/11 04:53:12;;;;;;;7.60;2.70;;;;;;;15.75;56.84;101270.04;105282;1267;97787;-79
2023/06/11 04:56:02;;;;;;;4.00;2.90;;;;;;;15.80;56.43;101268.09;105499;1272;102638;-79
2023/06/11 04:58:49;;;;;;;5.70;2.50;;;;;;;15.87;56.53;101265.45;105444;1272;100530;-80
2023/06/11 05:01:37;;;;;;;6.80;2.60;;;;;;;15.98;56.51;101265.44;105420;1267;97974;-79
2023/06/11 05:04:25;;;;;;;9.20;3.00;;;;;;;16.10;56.35;101270.73;104908;1273;97981;-81
2023/06/11 05:07:12;;;;;;;3.30;2.40;;;;;;;16.22;56.57;101270.37;105038;1267;97981;-80
2023/06/11 05:09:58;;;;;;;6.70;2.50;;;;;;;16.34;56.43;101269.45;104945;1267;102279;-79
2023/06/11 05:12:44;;;;;;;5.30;2.20;;;;;;;16.43;55.85;101273.77;104935;1273;99144;-81
2023/06/11 05:15:32;;;;;;;7.70;2.90;;;;;;;16.49;55.56;101271.80;105415;1267;99038;-81
2023/06/11 05:18:18;;;;;;;5.20;2.60;;;;;;;16.57;55.58;101270.89;105188;1270;98003;-81
2023/06/11 05:21:04;;;;;;;4.50;2.60;;;;;;;16.65;55.39;101271.25;105551;1267;98588;-80
2023/06/11 05:23:50;;;;;;;4.80;2.60;;;;;;;16.74;55.15;101274.83;105564;1271;101353;-82
2023/06/11 05:26:36;;;;;;;5.90;3.00;;;;;;;16.84;54.89;101279.23;104747;1270;99289;-79
2023/06/11 05:29:26;;;;;;;4.50;2.60;;;;;;;16.93;54.67;101285.20;105255;1273;98053;-79
2023/06/11 05:32:14;;;;;;;5.70;2.60;;;;;;;17.01;54.39;101280.48;105364;1267;98055;-80
2023/06/11 05:35:01;;;;;;;7.80;2.80;;;;;;;17.07;54.08;101282.87;104714;1267;98498;-80
2023/06/11 05:37:47;;;;;;;6.50;2.70;;;;;;;17.17;54.53;101286.38;104951;1269;101450;-79
2023/06/11 05:40:35;;;;;;;6.40;2.40;;;;;;;17.29;53.90;101287.39;104841;1273;99944;-80
2023/06/11 05:43:22;;;;;;;8.60;3.40;;;;;;;17.38;53.54;101289.39;104861;1273;98596;-79
2023/06/11 05:46:07;;;;;;;3.90;2.70;;;;;;;17.41;52.92;101286.50;104813;1270;98263;-79
2023/06/11 05:48:53;;;;;;;5.70;2.80;;;;;;;17.47;53.21;101284.66;105510;1273;98407;-78
2023/06/11 05:51:39;;;;;;;6.70;2.30;;;;;;;17.58;53.08;101292.14;105308;1272;102276;-79
2023/06/11 05:54:26;;;;;;;6.80;2.90;;;;;;;17.68;53.06;101293.58;105270;1269;100634;-79
2023/06/11 05:57:24;;;;;;;8.20;2.90;;;;;;;17.81;53.23;101297.35;104780;1274;97999;-80
2023/06/11 06:00:12;;;;;;;3.30;2.10;;;;;;;17.92;52.30;101299.20;105313;1267;98073;-80
2023/06/11 06:03:08;;;;;;;4.90;2.60;;;;;;;18.01;52.32;101303.10;105451;1267;97896;-80
2023/06/11 06:05:55;;;;;;;4.60;2.50;;;;;;;18.07;51.94;101307.36;105361;1267;101465;-79
2023/06/11 06:08:41;;;;;;;8.80;2.50;;;;;;;18.08;51.82;101307.15;105286;1268;100385;-80
2023/06/11 06:11:26;;;;;;;4.60;2.50;;;;;;;18.15;52.13;101306.10;105291;1280;98787;-80
2023/06/11 06:14:12;;;;;;;3.00;2.30;;;;;;;18.24;51.92;101306.71;105489;1270;97971;-80
2023/06/11 06:16:58;;;;;;;4.90;2.30;;;;;;;18.32;51.46;101309.40;105194;1271;97890;-81
2023/06/11 06:19:47;;;;;;;5.40;2.40;;;;;;;18.40;51.31;101310.09;105546;1271;102349;-80
2023/06/11 06:22:33;;;;;;;6.10;2.90;;;;;;;18.46;51.14;101309.98;105022;1267;99203;-80
2023/06/11 06:25:19;;;;;;;3.40;2.40;;;;;;;18.52;51.18;101308.49;104980;1267;98050;-81
2023/06/11 06:28:05;;;;;;;7.00;2.80;;;;;;;18.60;51.24;101305.74;105116;1267;97905;-80
2023/06/11 06:30:52;;;;;;;7.20;3.20;;;;;;;18.67;51.08;101310.90;105677;1273;97940;-81
2023/06/11 06:33:38;;;;;;;6.20;2.60;;;;;;;18.75;50.93;101309.74;104863;1273;102653;-80
2023/06/11 06:36:24;;;;;;;5.60;2.30;;;;;;;18.82;50.92;101306.83;105124;1267;99211;-80
2023/06/11 06:39:10;;;;;;;5.00;2.40;;;;;;;18.94;51.01;101306.97;105114;1267;98012;-80
2023/06/11 06:41:56;;;;;;;5.50;2.50;;;;;;;19.03;50.49;101309.01;105543;1267;98872;-80
2023/06/11 06:44:53;;;;;;;5.60;2.30;;;;;;;19.12;50.49;101304.69;105620;1270;99661;-80
2023/06/11 06:47:39;;;;;;;4.00;2.60;;;;;;;19.23;49.92;101303.98;105461;1270;102813;-82
2023/06/11 06:50:25;;;;;;;7.10;2.50;;;;;;;19.34;49.77;101306.45;105542;1273;99141;-80
2023/06/11 06:53:11;;;;;;;4.20;2.30;;;;;;;19.43;50.28;101299.86;105472;1267;98048;-80
2023/06/11 06:55:59;;;;;;;6.80;2.60;;;;;;;19.51;49.54;101299.00;105595;1267;98010;-82
2023/06/11 06:58:45;;;;;;;5.80;2.30;;;;;;;19.56;49.06;101301.22;105546;1267;98082;-81
2023/06/11 07:01:31;;;;;;;2.80;2.40;;;;;;;19.63;48.96;101303.48;105458;1267;102558;-82
2023/06/11 07:04:18;;;;;;;2.90;1.90;;;;;;;19.68;48.54;101302.16;105430;1267;99135;-82
2023/06/11 07:07:04;;;;;;;2.10;1.90;;;;;;;19.75;48.42;101302.81;105524;1271;97768;-81
2023/06/11 07:09:49;;;;;;;7.00;2.70;;;;;;;19.78;47.79;101298.68;105568;1273;98393;-80
2023/06/11 07:12:35;;;;;;;5.60;2.60;;;;;;;19.80;47.70;101298.53;105142;1267;98485;-81
2023/06/11 07:15:20;;;;;;;4.10;2.10;;;;;;;19.90;47.95;101302.23;105288;1274;101365;-82
2023/06/11 07:18:06;;;;;;;13.50;2.80;;;;;;;19.96;47.52;101302.98;105054;1267;100410;-81
2023/06/11 07:20:52;;;;;;;6.20;2.10;;;;;;;20.02;47.12;101304.66;105288;1267;98281;-80
2023/06/11 07:23:38;;;;;;;4.50;2.20;;;;;;;20.04;46.49;101307.45;105126;1268;97904;-80
2023/06/11 07:26:25;;;;;;;4.30;2.40;;;;;;;20.05;46.31;101308.94;105269;1267;99686;-82
2023/06/11 07:29:10;;;;;;;7.40;2.40;;;;;;;20.07;44.66;101309.27;105587;1267;101222;-81
2023/06/11 07:31:56;;;;;;;7.60;2.10;;;;;;;20.09;44.40;101308.73;105102;1267;99144;-81
2023/06/11 07:34:42;;;;;;;8.40;2.30;;;;;;;20.18;44.53;101307.99;105165;1267;98058;-81
2023/06/11 07:37:29;;;;;;;5.90;2.30;;;;;;;20.28;44.57;101308.89;105212;1267;97889;-81
2023/06/11 07:40:15;;;;;;;4.90;2.00;;;;;;;20.32;43.63;101306.54;105388;1268;98590;-82
2023/06/11 07:43:01;;;;;;;6.10;1.70;;;;;;;20.36;43.60;101306.20;105347;1267;101365;-81
2023/06/11 07:45:48;;;;;;;4.10;2.00;;;;;;;20.38;42.18;101305.94;105363;1267;100364;-81
2023/06/11 07:48:41;;;;;;;3.40;1.40;;;;;;;20.39;42.57;101309.22;105478;1267;98605;-81
2023/06/11 07:51:26;;;;;;;5.30;1.60;;;;;;;20.41;41.69;101312.16;105368;1268;98099;-81
2023/06/11 07:54:17;;;;;;;8.50;1.60;;;;;;;20.42;41.14;101311.85;105439;1271;98084;-81
2023/06/11 07:57:03;;;;;;;4.30;1.60;;;;;;;20.43;40.94;101312.59;105465;1272;101355;-79
2023/06/11 07:59:48;;;;;;;4.50;1.80;;;;;;;20.47;41.27;101314.81;105015;1274;99733;-79
2023/06/11 08:02:34;;;;;;;3.90;1.50;;;;;;;20.52;40.91;101309.22;104991;1267;97956;-79
2023/06/11 08:05:19;;;;;;;4.30;1.40;;;;;;;20.54;40.69;101309.23;104936;1273;97984;-81
2023/06/11 08:08:06;;;;;;;8.30;1.90;;;;;;;20.59;40.79;101309.66;104991;1270;98761;-79
2023/06/11 08:10:51;;;;;;;2.30;2.00;;;;;;;20.65;41.02;101310.84;104921;1267;101358;-81
2023/06/11 08:13:38;;;;;;;5.40;1.90;;;;;;;20.74;40.42;101307.20;104840;1267;100198;-80
2023/06/11 08:16:23;;;;;;;4.80;1.80;;;;;;;20.79;39.94;101306.71;105480;1268;99351;-79
2023/06/11 08:19:09;;;;;;;2.70;1.60;;;;;;;20.81;39.39;101300.17;105443;1272;97893;-81
2023/06/11 08:21:55;;;;;;;6.20;1.40;;;;;;;20.87;39.20;101305.00;105022;1268;98850;-81
2023/06/11 08:24:41;;;;;;;6.90;1.30;;;;;;;20.90;38.51;101299.99;105511;1267;101301;-82
2023/06/11 08:27:26;;;;;;;3.40;1.50;;;;;;;20.85;37.46;101302.33;105457;1267;99211;-81
2023/06/11 08:30:12;;;;;;;5.00;1.90;;;;;;;20.76;36.72;101306.10;105585;1267;99115;-81
2023/06/11 08:32:57;;;;;;;4.70;1.40;;;;;;;20.68;37.02;101299.52;105521;1267;97876;-82
2023/06/11 08:35:43;;;;;;;5.80;1.60;;;;;;;20.68;36.90;101304.76;105534;1267;99093;-80
2023/06/11 08:38:29;;;;;;;6.10;1.90;;;;;;;20.68;36.77;101303.41;105422;1267;102768;-80
2023/06/11 08:41:15;;;;;;;8.00;1.70;;;;;;;20.73;37.22;101301.56;105538;1267;99126;-81
2023/06/11 08:44:01;;;;;;;2.00;1.10;;;;;;;20.78;36.70;101296.45;104851;1273;108499;-85
2023/06/11 08:46:49;;;;;;;3.90;1.30;;;;;;;20.82;36.15;101298.87;105903;1268;98053;-80
2023/06/11 08:49:37;;;;;;;5.60;1.50;;;;;;;20.82;35.82;101296.48;105375;1272;100618;-81
2023/06/11 08:52:25;;;;;;;7.20;1.40;;;;;;;20.83;36.19;101294.71;105398;1267;101464;-82
2023/06/11 08:55:13;;;;;;;3.70;1.20;;;;;;;20.80;35.75;101286.63;105409;1273;99152;-84
2023/06/11 08:58:00;;;;;;;3.10;1.10;;;;;;;20.79;35.15;101287.60;105271;1267;99650;-82
2023/06/11 09:00:45;;;;;;;2.30;1.40;;;;;;;20.84;35.13;101281.01;105562;1267;98529;-82
2023/06/11 09:03:31;;;;;;;2.90;1.10;;;;;;;20.90;35.39;101281.65;105709;1267;98522;-82
2023/06/11 09:06:18;;;;;;;2.80;1.40;;;;;;;20.96;34.78;101281.29;105460;1267;101399;-83
2023/06/11 09:09:06;;;;;;;2.10;1.10;;;;;;;21.04;34.71;101277.70;105503;1267;100961;-83
2023/06/11 09:11:52;;;;;;;2.90;1.10;;;;;;;21.13;34.26;101267.26;105485;1267;97955;-88
2023/06/11 09:14:37;;;;;;;5.20;1.30;;;;;;;21.24;34.31;101273.17;105163;1271;98034;-89
2023/06/11 09:17:23;;;;;;;1.80;1.10;;;;;;;21.28;34.06;101268.23;105128;1267;97830;-84
2023/06/11 09:20:12;;;;;;;3.30;1.30;;;;;;;21.27;34.08;101268.98;105317;1270;102600;-79
2023/06/11 09:22:58;;;;;;;1.80;0.90;;;;;;;21.28;34.11;101266.10;105130;1273;98928;-81
2023/06/11 09:25:46;;;;;;;6.20;1.40;;;;;;;21.21;33.56;101260.04;105229;1267;97997;-79
2023/06/11 09:28:36;;;;;;;2.30;1.50;;;;;;;21.18;33.67;101261.48;104565;1268;97964;-78
2023/06/11 09:31:22;;;;;;;3.50;1.10;;;;;;;21.18;33.24;101260.98;104904;1267;97876;-82
2023/06/11 09:34:12;;;;;;;1.50;1.20;;;;;;;21.18;33.37;101253.15;105984;1267;102604;-81
2023/06/11 09:36:57;;;;;;;3.90;1.30;;;;;;;21.23;32.80;101252.16;105518;1267;100423;-83
2023/06/11 09:39:45;;;;;;;3.80;1.30;;;;;;;21.23;32.53;101250.70;105195;1270;98493;-79
2023/06/11 09:42:34;;;;;;;2.00;1.50;;;;;;;21.28;33.04;101252.86;104557;1273;97964;-78
2023/06/11 09:45:21;;;;;;;4.40;1.30;;;;;;;21.39;33.69;101245.74;104792;1268;98951;-79
2023/06/11 09:48:12;;;;;;;5.40;1.40;;;;;;;21.51;33.39;101248.16;104778;1267;101273;-79
2023/06/11 09:51:00;;;;;;;;;;;;;;;21.55;32.91;101245.61;105792;1271;99142;-82
2023/06/11 09:53:50;;;;;;;4.80;1.30;;;;;;;21.56;33.09;101240.52;106603;1267;97913;-91
2023/06/11 09:56:37;;;;;;;5.00;1.30;;;;;;;21.61;33.00;101245.78;105292;1267;97969;-83
2023/06/11 09:59:23;;;;;;;6.10;1.70;;;;;;;21.61;33.29;101248.34;105499;1273;97987;-82
2023/06/11 10:02:09;;;;;;;2.40;1.50;;;;;;;21.69;34.05;101247.20;105468;1267;101481;-82
2023/06/11 10:04:55;;;;;;;3.80;1.20;;;;;;;21.82;34.05;101245.83;105481;1267;99116;-84
2023/06/11 10:07:48;;;;;;;2.60;1.30;;;;;;;21.89;33.47;101239.91;105547;1272;97957;-83
2023/06/11 10:10:39;;;;;;;14.20;2.10;;;;;;;21.92;33.15;101242.20;105370;1267;97968;-84
2023/06/11 10:13:33;;;;;;;3.10;1.60;;;;;;;21.91;32.89;101243.94;105589;1267;98581;-82
2023/06/11 10:16:20;;;;;;;1.90;1.50;;;;;;;21.94;33.72;101242.20;105379;1270;102676;-83
2023/06/11 10:19:07;;;;;;;1.60;1.50;;;;;;;21.93;33.22;101238.69;105485;1267;100143;-83
2023/06/11 10:22:00;;;;;;;2.90;1.70;;;;;;;21.94;34.34;101234.16;105508;1270;99008;-84
2023/06/11 10:24:57;;;;;;;4.20;1.70;;;;;;;22.05;34.30;101232.94;105492;1271;98009;-85
2023/06/11 10:27:43;;;;;;;3.00;1.50;;;;;;;22.13;34.95;101227.20;105547;1267;98417;-83
2023/06/11 10:30:30;;;;;;;2.60;1.60;;;;;;;22.22;34.69;101223.19;105243;1267;101989;-84
2023/06/11 10:33:16;;;;;;;2.10;1.80;;;;;;;22.23;34.39;101221.08;105372;1270;99050;-84
2023/06/11 10:36:02;;;;;;;6.00;1.40;;;;;;;22.22;34.60;101222.36;105375;1271;98024;-83
2023/06/11 10:38:48;;;;;;;2.70;1.70;;;;;;;22.25;34.81;101221.87;105541;1267;97943;-83
2023/06/11 10:41:42;;;;;;;5.70;1.60;;;;;;;22.28;35.14;101220.06;105550;1267;98414;-85
2023/06/11 10:44:29;;;;;;;4.00;1.80;;;;;;;22.36;35.26;101227.06;105426;1267;101560;-85
2023/06/11 10:47:15;;;;;;;10.20;1.70;;;;;;;22.39;34.45;101217.73;105489;1268;100000;-84
2023/06/11 10:50:06;;;;;;;2.10;1.60;;;;;;;22.36;34.69;101217.52;105352;1272;99039;-85
2023/06/11 10:52:58;;;;;;;2.10;1.80;;;;;;;22.35;34.65;101211.44;105341;1267;98084;-84
2023/06/11 10:55:44;;;;;;;6.60;2.00;;;;;;;22.36;34.42;101215.27;105178;1273;98081;-84
2023/06/11 10:58:32;;;;;;;3.50;1.80;;;;;;;22.38;34.11;101218.58;105281;1276;102746;-83
2023/06/11 11:01:21;;;;;;;2.40;1.50;;;;;;;22.37;33.96;101216.49;105473;1268;99118;-84
2023/06/11 11:04:07;;;;;;;2.50;1.70;;;;;;;22.37;34.18;101213.88;105353;1267;97972;-83
2023/06/11 11:07:13;;;;;;;2.00;1.80;;;;;;;22.41;34.39;101210.86;105337;1267;98743;-84
2023/06/11 11:10:00;;;;;;;2.80;1.80;;;;;;;22.47;34.56;101207.85;105249;1267;99245;-85
2023/06/11 11:12:47;;;;;;;3.80;1.60;;;;;;;22.52;34.36;101208.64;105452;1267;101301;-84
2023/06/11 11:15:34;;;;;;;6.50;2.40;;;;;;;22.52;34.79;101206.46;105498;1271;101268;-84
2023/06/11 11:18:19;;;;;;;3.20;2.00;;;;;;;22.64;35.38;101204.03;105345;1267;98064;-84
2023/06/11 11:21:05;;;;;;;2.30;1.70;;;;;;;22.80;35.47;101204.16;105227;1272;97993;-84
2023/06/11 11:23:50;;;;;;;3.20;2.30;;;;;;;22.95;35.58;101199.95;105569;1267;98407;-85
2023/06/11 11:26:44;;;;;;;2.90;1.90;;;;;;;22.97;34.58;101200.45;105399;1275;111441;-84
2023/06/11 11:29:29;;;;;;;5.70;1.80;;;;;;;22.90;34.26;101196.98;105157;1271;216673;-83
2023/06/11 11:32:15;;;;;;;3.80;1.80;;;;;;;22.90;33.78;101197.20;105263;1276;98654;-84
2023/06/11 11:35:04;;;;;;;4.70;1.70;;;;;;;22.87;33.82;101192.84;105394;1268;97989;-83
2023/06/11 11:37:54;;;;;;;3.30;1.90;;;;;;;22.90;33.97;101189.33;105377;1268;98015;-80
2023/06/11 11:40:40;;;;;;;5.40;1.50;;;;;;;23.00;34.74;101190.77;105396;1267;101343;-84
2023/06/11 11:43:25;;;;;;;2.00;1.80;;;;;;;23.15;34.69;101188.65;105238;1267;100459;-82
2023/06/11 11:46:20;;;;;;;12.20;3.00;;;;;;;23.24;34.75;101182.98;105540;1267;98462;-82
2023/06/11 11:49:07;;;;;;;2.30;1.90;;;;;;;23.38;34.56;101180.15;105124;1267;99284;-83
2023/06/11 11:51:57;;;;;;;5.60;2.00;;;;;;;23.45;34.58;101186.69;105373;1267;98083;-83
2023/06/11 11:54:44;;;;;;;7.90;2.50;;;;;;;23.48;34.48;101182.12;105397;1272;102665;-83
2023/06/11 11:57:30;;;;;;;5.10;2.20;;;;;;;23.45;34.53;101182.86;105650;1267;101558;-81
2023/06/11 12:00:25;;;;;;;3.70;2.20;;;;;;;23.50;34.41;101184.77;105650;1267;99053;-81
2023/06/11 12:03:10;;;;;;;3.40;1.80;;;;;;;23.55;34.43;101179.70;105526;1271;99229;-82
2023/06/11 12:05:59;;;;;;;8.00;2.40;;;;;;;23.58;34.50;101188.73;105846;1267;98516;-82
2023/06/11 12:08:44;;;;;;;2.70;2.10;;;;;;;23.56;34.04;101184.48;105727;1267;101360;-83
2023/06/11 12:11:30;;;;;;;3.00;1.80;;;;;;;23.56;33.90;101179.58;105487;1270;99257;-85
2023/06/11 12:14:16;;;;;;;6.40;2.40;;;;;;;23.58;34.30;101182.50;105460;1270;99105;-85
2023/06/11 12:17:02;;;;;;;2.80;2.00;;;;;;;23.67;34.65;101181.16;105259;1267;98055;-82
2023/06/11 12:19:48;;;;;;;2.50;2.30;;;;;;;23.68;34.03;101185.12;105527;1267;96241;-83
2023/06/11 12:22:33;;;;;;;2.90;2.10;;;;;;;23.69;34.02;101174.63;105331;1267;101437;-82
2023/06/11 12:25:19;;;;;;;2.20;2.00;;;;;;;23.79;33.76;101177.13;105709;1267;99150;-87
2023/06/11 12:28:05;;;;;;;4.60;2.50;;;;;;;23.85;33.48;101180.13;105616;1270;99312;-86
2023/06/11 12:30:51;;;;;;;5.30;2.10;;;;;;;23.78;33.36;101181.60;105686;1270;98019;-88
2023/06/11 12:33:38;;;;;;;7.40;2.60;;;;;;;23.75;34.11;101185.12;105456;1267;98599;-86
2023/06/11 12:36:24;;;;;;;4.80;2.20;;;;;;;23.77;33.21;101185.10;105288;1267;102075;-83
2023/06/11 12:39:10;;;;;;;5.60;2.30;;;;;;;23.56;32.90;101189.70;105422;1267;100712;-88
2023/06/11 12:41:56;;;;;;;5.20;2.30;;;;;;;23.43;32.88;101178.34;105316;1271;97962;-83
2023/06/11 12:44:43;;;;;;;4.40;2.30;;;;;;;23.49;33.55;101180.50;105225;1267;99157;-83
2023/06/11 12:47:29;;;;;;;5.80;2.20;;;;;;;23.58;33.63;101179.39;105466;1267;98392;-82